aviador You're here:

GCLP Decoded Metar

LAS PALMAS in SPAIN
Report Time2017-08-18 04:30:00
UTC Time2017-08-18 04:50:44
Flight Rules vfr VFR
Wind010° at 21 kt
W.Decomp.*RWY 03: 20.3 kt HW 5.4 kt LCW
W.Rank010° ranks 1
Current wind is above 010° avg. (17.5)
Visibility9999 m
Phenomena:N/A
Clouds:N/A
Expected CloudBase > 5,200 ft AGL from Temp-Dew spread
CeilingNone
Temp27°C (ISA +12)
Dew Point14°C (45% RH)
Heat Index27.1°C
AAT20.7°C
QNH1015 hPa
Density Alt1,631 ft
Elevation82 ft
Report Wrong Elevation
Raw Report
GCLP 180430Z 01021KT CAVOK 27/14 Q1015 NOSIG=

Extra information for GCLP:More info

Metar Taf Metar & Taf Last 4 Metars F.Rules Stats Wind Profile Meteogram Temp Stats Airport Information Weather charts Add Link Nearby VenuesMetar ALERT Operation Metar Decoded Social comments